sensor_id;sensor_type;location;lat;lon;timestamp;P1;durP1;ratioP1;P2;durP2;ratioP2
49812;SDS011;35706;52.100;5.056;2023-05-07T00:00:57;19.55;;;16.25;;
49812;SDS011;35706;52.100;5.056;2023-05-07T00:01:59;19.63;;;15.73;;
49812;SDS011;35706;52.100;5.056;2023-05-07T00:02:59;21.80;;;16.98;;
49812;SDS011;35706;52.100;5.056;2023-05-07T00:04:01;28.92;;;17.52;;
49812;SDS011;35706;52.100;5.056;2023-05-07T00:05:02;23.00;;;17.10;;
49812;SDS011;35706;52.100;5.056;2023-05-07T00:06:03;21.70;;;16.10;;
49812;SDS011;35706;52.100;5.056;2023-05-07T00:07:03;20.63;;;16.23;;
49812;SDS011;35706;52.100;5.056;2023-05-07T00:08:03;22.13;;;16.63;;
49812;SDS011;35706;52.100;5.056;2023-05-07T00:09:04;24.08;;;17.50;;
49812;SDS011;35706;52.100;5.056;2023-05-07T00:10:05;19.90;;;15.77;;
49812;SDS011;35706;52.100;5.056;2023-05-07T00:11:06;20.90;;;16.50;;
49812;SDS011;35706;52.100;5.056;2023-05-07T00:12:07;22.02;;;16.38;;
49812;SDS011;35706;52.100;5.056;2023-05-07T00:13:07;20.15;;;16.23;;
49812;SDS011;35706;52.100;5.056;2023-05-07T00:14:07;18.63;;;16.13;;
49812;SDS011;35706;52.100;5.056;2023-05-07T00:15:08;20.73;;;16.15;;
49812;SDS011;35706;52.100;5.056;2023-05-07T00:16:08;20.05;;;16.77;;
49812;SDS011;35706;52.100;5.056;2023-05-07T00:17:08;25.50;;;16.58;;
49812;SDS011;35706;52.100;5.056;2023-05-07T00:18:09;24.52;;;16.30;;
49812;SDS011;35706;52.100;5.056;2023-05-07T00:19:09;21.52;;;16.58;;
49812;SDS011;35706;52.100;5.056;2023-05-07T00:20:10;22.27;;;16.25;;
49812;SDS011;35706;52.100;5.056;2023-05-07T00:21:11;21.38;;;15.85;;
49812;SDS011;35706;52.100;5.056;2023-05-07T00:22:11;20.42;;;15.13;;
49812;SDS011;35706;52.100;5.056;2023-05-07T00:23:12;20.90;;;15.18;;
49812;SDS011;35706;52.100;5.056;2023-05-07T00:24:12;16.42;;;14.65;;
49812;SDS011;35706;52.100;5.056;2023-05-07T00:25:12;19.42;;;14.85;;
49812;SDS011;35706;52.100;5.056;2023-05-07T00:26:13;18.33;;;13.43;;
49812;SDS011;35706;52.100;5.056;2023-05-07T00:27:13;13.98;;;12.63;;
49812;SDS011;35706;52.100;5.056;2023-05-07T00:28:13;12.90;;;11.48;;
49812;SDS011;35706;52.100;5.056;2023-05-07T00:29:13;13.35;;;11.35;;
49812;SDS011;35706;52.100;5.056;2023-05-07T00:30:14;12.25;;;10.95;;
49812;SDS011;35706;52.100;5.056;2023-05-07T00:31:14;13.50;;;11.13;;
49812;SDS011;35706;52.100;5.056;2023-05-07T00:32:15;11.98;;;10.77;;
49812;SDS011;35706;52.100;5.056;2023-05-07T00:33:15;11.73;;;10.60;;
49812;SDS011;35706;52.100;5.056;2023-05-07T00:34:15;13.20;;;10.45;;
49812;SDS011;35706;52.100;5.056;2023-05-07T00:35:16;13.80;;;10.15;;
49812;SDS011;35706;52.100;5.056;2023-05-07T00:36:16;10.02;;;9.02;;
49812;SDS011;35706;52.100;5.056;2023-05-07T00:37:16;10.10;;;9.20;;
49812;SDS011;35706;52.100;5.056;2023-05-07T00:38:17;11.77;;;9.60;;
49812;SDS011;35706;52.100;5.056;2023-05-07T00:39:17;10.25;;;9.18;;
49812;SDS011;35706;52.100;5.056;2023-05-07T00:40:17;9.38;;;8.57;;
49812;SDS011;35706;52.100;5.056;2023-05-07T00:41:17;8.55;;;7.45;;
49812;SDS011;35706;52.100;5.056;2023-05-07T00:42:18;12.23;;;9.32;;
49812;SDS011;35706;52.100;5.056;2023-05-07T00:43:18;9.98;;;9.02;;
49812;SDS011;35706;52.100;5.056;2023-05-07T00:44:18;9.32;;;8.07;;
49812;SDS011;35706;52.100;5.056;2023-05-07T00:45:19;8.18;;;7.35;;
49812;SDS011;35706;52.100;5.056;2023-05-07T00:46:22;9.88;;;7.65;;
49812;SDS011;35706;52.100;5.056;2023-05-07T00:47:23;9.38;;;8.30;;
49812;SDS011;35706;52.100;5.056;2023-05-07T00:48:25;9.35;;;8.07;;
49812;SDS011;35706;52.100;5.056;2023-05-07T00:49:27;8.38;;;7.57;;
49812;SDS011;35706;52.100;5.056;2023-05-07T00:51:36;10.55;;;7.38;;
49812;SDS011;35706;52.100;5.056;2023-05-07T00:52:37;7.30;;;6.60;;
49812;SDS011;35706;52.100;5.056;2023-05-07T00:53:37;8.38;;;7.40;;
49812;SDS011;35706;52.100;5.056;2023-05-07T00:54:38;7.00;;;6.35;;
49812;SDS011;35706;52.100;5.056;2023-05-07T00:55:40;7.55;;;6.85;;
49812;SDS011;35706;52.100;5.056;2023-05-07T00:56:40;7.95;;;7.20;;
49812;SDS011;35706;52.100;5.056;2023-05-07T00:57:41;7.20;;;6.60;;
49812;SDS011;35706;52.100;5.056;2023-05-07T00:58:41;6.55;;;5.97;;
49812;SDS011;35706;52.100;5.056;2023-05-07T00:59:42;6.38;;;5.80;;
49812;SDS011;35706;52.100;5.056;2023-05-07T01:00:42;8.27;;;5.68;;
49812;SDS011;35706;52.100;5.056;2023-05-07T01:01:42;6.97;;;6.00;;
49812;SDS011;35706;52.100;5.056;2023-05-07T01:02:43;5.68;;;5.18;;
49812;SDS011;35706;52.100;5.056;2023-05-07T01:03:43;6.53;;;5.97;;
49812;SDS011;35706;52.100;5.056;2023-05-07T01:04:44;6.55;;;6.05;;
49812;SDS011;35706;52.100;5.056;2023-05-07T01:05:44;6.70;;;6.20;;
49812;SDS011;35706;52.100;5.056;2023-05-07T01:06:47;7.05;;;4.90;;
49812;SDS011;35706;52.100;5.056;2023-05-07T01:07:48;6.53;;;5.28;;
49812;SDS011;35706;52.100;5.056;2023-05-07T01:08:50;7.80;;;5.82;;
49812;SDS011;35706;52.100;5.056;2023-05-07T01:09:52;7.22;;;6.55;;
49812;SDS011;35706;52.100;5.056;2023-05-07T01:10:54;6.40;;;5.22;;
49812;SDS011;35706;52.100;5.056;2023-05-07T01:11:55;6.65;;;6.00;;
49812;SDS011;35706;52.100;5.056;2023-05-07T01:12:57;6.07;;;5.57;;
49812;SDS011;35706;52.100;5.056;2023-05-07T01:13:59;10.30;;;5.93;;
49812;SDS011;35706;52.100;5.056;2023-05-07T01:15:00;6.82;;;6.00;;
49812;SDS011;35706;52.100;5.056;2023-05-07T01:16:01;8.00;;;5.70;;
49812;SDS011;35706;52.100;5.056;2023-05-07T01:17:02;6.68;;;6.03;;
49812;SDS011;35706;52.100;5.056;2023-05-07T01:18:03;5.90;;;5.40;;
49812;SDS011;35706;52.100;5.056;2023-05-07T01:19:03;5.93;;;5.43;;
49812;SDS011;35706;52.100;5.056;2023-05-07T01:20:04;6.18;;;5.57;;
49812;SDS011;35706;52.100;5.056;2023-05-07T01:21:05;6.60;;;5.20;;
49812;SDS011;35706;52.100;5.056;2023-05-07T01:22:08;5.65;;;5.22;;
49812;SDS011;35706;52.100;5.056;2023-05-07T01:23:11;5.82;;;5.30;;
49812;SDS011;35706;52.100;5.056;2023-05-07T01:24:12;6.57;;;5.97;;
49812;SDS011;35706;52.100;5.056;2023-05-07T01:25:12;6.60;;;4.97;;
49812;SDS011;35706;52.100;5.056;2023-05-07T01:26:13;5.78;;;4.65;;
49812;SDS011;35706;52.100;5.056;2023-05-07T01:27:13;5.70;;;5.28;;
49812;SDS011;35706;52.100;5.056;2023-05-07T01:28:14;5.40;;;4.57;;
49812;SDS011;35706;52.100;5.056;2023-05-07T01:29:14;6.28;;;5.35;;
49812;SDS011;35706;52.100;5.056;2023-05-07T01:30:15;7.88;;;5.28;;
49812;SDS011;35706;52.100;5.056;2023-05-07T01:31:17;6.43;;;5.93;;
49812;SDS011;35706;52.100;5.056;2023-05-07T01:32:18;6.07;;;5.57;;
49812;SDS011;35706;52.100;5.056;2023-05-07T01:33:25;5.78;;;5.10;;
49812;SDS011;35706;52.100;5.056;2023-05-07T01:34:30;6.93;;;6.07;;
49812;SDS011;35706;52.100;5.056;2023-05-07T01:35:34;6.95;;;4.80;;
49812;SDS011;35706;52.100;5.056;2023-05-07T01:36:38;4.97;;;4.55;;
49812;SDS011;35706;52.100;5.056;2023-05-07T01:37:41;9.38;;;4.70;;
49812;SDS011;35706;52.100;5.056;2023-05-07T01:38:41;4.90;;;4.43;;
49812;SDS011;35706;52.100;5.056;2023-05-07T01:39:43;5.43;;;4.97;;
49812;SDS011;35706;52.100;5.056;2023-05-07T01:40:44;4.63;;;4.20;;
49812;SDS011;35706;52.100;5.056;2023-05-07T01:41:45;6.15;;;5.03;;
49812;SDS011;35706;52.100;5.056;2023-05-07T01:42:46;4.40;;;4.00;;
49812;SDS011;35706;52.100;5.056;2023-05-07T01:43:48;4.00;;;3.70;;
49812;SDS011;35706;52.100;5.056;2023-05-07T01:44:49;4.93;;;3.38;;
49812;SDS011;35706;52.100;5.056;2023-05-07T01:45:50;4.25;;;3.28;;
49812;SDS011;35706;52.100;5.056;2023-05-07T01:46:52;3.50;;;2.90;;
49812;SDS011;35706;52.100;5.056;2023-05-07T01:47:54;5.88;;;3.00;;
49812;SDS011;35706;52.100;5.056;2023-05-07T01:48:55;6.60;;;3.00;;
49812;SDS011;35706;52.100;5.056;2023-05-07T01:49:55;5.35;;;3.28;;
49812;SDS011;35706;52.100;5.056;2023-05-07T01:50:56;4.68;;;3.28;;
49812;SDS011;35706;52.100;5.056;2023-05-07T01:51:56;3.53;;;2.85;;
49812;SDS011;35706;52.100;5.056;2023-05-07T01:52:58;3.70;;;3.15;;
49812;SDS011;35706;52.100;5.056;2023-05-07T01:53:58;3.30;;;2.53;;
49812;SDS011;35706;52.100;5.056;2023-05-07T01:54:58;4.28;;;2.38;;
49812;SDS011;35706;52.100;5.056;2023-05-07T01:55:58;4.57;;;2.65;;
49812;SDS011;35706;52.100;5.056;2023-05-07T01:56:59;4.40;;;2.25;;
49812;SDS011;35706;52.100;5.056;2023-05-07T01:58:00;2.40;;;2.13;;
49812;SDS011;35706;52.100;5.056;2023-05-07T01:59:00;3.38;;;2.05;;
49812;SDS011;35706;52.100;5.056;2023-05-07T02:00:02;4.50;;;2.33;;
49812;SDS011;35706;52.100;5.056;2023-05-07T02:01:05;3.10;;;2.13;;
49812;SDS011;35706;52.100;5.056;2023-05-07T02:02:05;4.90;;;1.42;;
49812;SDS011;35706;52.100;5.056;2023-05-07T02:03:05;5.15;;;2.40;;
49812;SDS011;35706;52.100;5.056;2023-05-07T02:04:05;3.30;;;1.80;;
49812;SDS011;35706;52.100;5.056;2023-05-07T02:05:06;5.97;;;1.90;;
49812;SDS011;35706;52.100;5.056;2023-05-07T02:06:06;3.67;;;1.85;;
49812;SDS011;35706;52.100;5.056;2023-05-07T02:07:07;4.50;;;1.52;;
49812;SDS011;35706;52.100;5.056;2023-05-07T02:08:07;3.08;;;1.77;;
49812;SDS011;35706;52.100;5.056;2023-05-07T02:09:08;3.20;;;1.33;;
49812;SDS011;35706;52.100;5.056;2023-05-07T02:10:09;2.53;;;1.45;;
49812;SDS011;35706;52.100;5.056;2023-05-07T02:11:09;3.20;;;1.80;;
49812;SDS011;35706;52.100;5.056;2023-05-07T02:12:10;3.08;;;1.83;;
49812;SDS011;35706;52.100;5.056;2023-05-07T02:13:10;3.00;;;2.20;;
49812;SDS011;35706;52.100;5.056;2023-05-07T02:14:11;2.72;;;1.98;;
49812;SDS011;35706;52.100;5.056;2023-05-07T02:15:11;3.80;;;1.83;;
49812;SDS011;35706;52.100;5.056;2023-05-07T02:16:11;2.92;;;1.92;;
49812;SDS011;35706;52.100;5.056;2023-05-07T02:17:14;2.92;;;1.92;;
49812;SDS011;35706;52.100;5.056;2023-05-07T02:18:15;2.92;;;1.70;;
49812;SDS011;35706;52.100;5.056;2023-05-07T02:19:16;4.72;;;2.25;;
49812;SDS011;35706;52.100;5.056;2023-05-07T02:20:16;2.95;;;2.13;;
49812;SDS011;35706;52.100;5.056;2023-05-07T02:21:16;3.63;;;2.80;;
49812;SDS011;35706;52.100;5.056;2023-05-07T02:22:17;3.80;;;2.20;;
49812;SDS011;35706;52.100;5.056;2023-05-07T02:23:17;3.40;;;3.10;;
49812;SDS011;35706;52.100;5.056;2023-05-07T02:24:18;3.55;;;3.05;;
49812;SDS011;35706;52.100;5.056;2023-05-07T02:25:18;3.60;;;3.13;;
49812;SDS011;35706;52.100;5.056;2023-05-07T02:26:18;3.40;;;2.83;;
49812;SDS011;35706;52.100;5.056;2023-05-07T02:27:19;3.55;;;3.25;;
49812;SDS011;35706;52.100;5.056;2023-05-07T02:28:19;3.72;;;3.25;;
49812;SDS011;35706;52.100;5.056;2023-05-07T02:29:20;3.15;;;2.83;;
49812;SDS011;35706;52.100;5.056;2023-05-07T02:30:20;4.15;;;3.50;;
49812;SDS011;35706;52.100;5.056;2023-05-07T02:31:21;5.13;;;3.30;;
49812;SDS011;35706;52.100;5.056;2023-05-07T02:32:21;8.00;;;3.55;;
49812;SDS011;35706;52.100;5.056;2023-05-07T02:33:23;5.80;;;3.85;;
49812;SDS011;35706;52.100;5.056;2023-05-07T02:34:23;5.70;;;4.45;;
49812;SDS011;35706;52.100;5.056;2023-05-07T02:35:24;5.47;;;3.38;;
49812;SDS011;35706;52.100;5.056;2023-05-07T02:36:25;4.13;;;3.75;;
49812;SDS011;35706;52.100;5.056;2023-05-07T02:37:26;3.75;;;3.45;;
49812;SDS011;35706;52.100;5.056;2023-05-07T02:38:26;4.43;;;4.00;;
49812;SDS011;35706;52.100;5.056;2023-05-07T02:39:27;4.38;;;3.97;;
49812;SDS011;35706;52.100;5.056;2023-05-07T02:40:27;5.57;;;4.10;;
49812;SDS011;35706;52.100;5.056;2023-05-07T02:41:27;4.60;;;4.20;;
49812;SDS011;35706;52.100;5.056;2023-05-07T02:42:28;4.43;;;3.80;;
49812;SDS011;35706;52.100;5.056;2023-05-07T02:43:28;3.83;;;3.53;;
49812;SDS011;35706;52.100;5.056;2023-05-07T02:44:28;4.60;;;3.90;;
49812;SDS011;35706;52.100;5.056;2023-05-07T02:45:31;7.25;;;4.80;;
49812;SDS011;35706;52.100;5.056;2023-05-07T02:46:32;5.68;;;4.03;;
49812;SDS011;35706;52.100;5.056;2023-05-07T02:47:33;6.55;;;4.40;;
49812;SDS011;35706;52.100;5.056;2023-05-07T02:48:33;4.53;;;4.10;;
49812;SDS011;35706;52.100;5.056;2023-05-07T02:49:34;6.18;;;4.35;;
49812;SDS011;35706;52.100;5.056;2023-05-07T02:50:34;5.43;;;4.90;;
49812;SDS011;35706;52.100;5.056;2023-05-07T02:51:35;6.15;;;4.65;;
49812;SDS011;35706;52.100;5.056;2023-05-07T02:52:35;6.32;;;4.43;;
49812;SDS011;35706;52.100;5.056;2023-05-07T02:53:35;5.93;;;4.13;;
49812;SDS011;35706;52.100;5.056;2023-05-07T02:54:36;5.28;;;4.75;;
49812;SDS011;35706;52.100;5.056;2023-05-07T02:55:36;4.88;;;4.47;;
49812;SDS011;35706;52.100;5.056;2023-05-07T02:56:36;5.97;;;5.10;;
49812;SDS011;35706;52.100;5.056;2023-05-07T02:57:36;5.55;;;5.05;;
49812;SDS011;35706;52.100;5.056;2023-05-07T02:58:37;5.97;;;4.43;;
49812;SDS011;35706;52.100;5.056;2023-05-07T02:59:39;5.13;;;4.65;;
49812;SDS011;35706;52.100;5.056;2023-05-07T03:00:39;4.20;;;4.00;;
49812;SDS011;35706;52.100;5.056;2023-05-07T03:01:40;6.13;;;4.38;;
49812;SDS011;35706;52.100;5.056;2023-05-07T03:02:41;5.47;;;4.75;;
49812;SDS011;35706;52.100;5.056;2023-05-07T03:03:42;5.72;;;4.68;;
49812;SDS011;35706;52.100;5.056;2023-05-07T03:04:42;5.20;;;4.75;;
49812;SDS011;35706;52.100;5.056;2023-05-07T03:05:42;8.90;;;4.95;;
49812;SDS011;35706;52.100;5.056;2023-05-07T03:06:43;4.43;;;4.13;;
49812;SDS011;35706;52.100;5.056;2023-05-07T03:07:43;5.50;;;4.93;;
49812;SDS011;35706;52.100;5.056;2023-05-07T03:08:46;4.50;;;4.03;;
49812;SDS011;35706;52.100;5.056;2023-05-07T03:09:46;5.22;;;4.68;;
49812;SDS011;35706;52.100;5.056;2023-05-07T03:10:46;6.40;;;4.97;;
49812;SDS011;35706;52.100;5.056;2023-05-07T03:11:47;6.40;;;4.80;;
49812;SDS011;35706;52.100;5.056;2023-05-07T03:12:47;6.50;;;4.78;;
49812;SDS011;35706;52.100;5.056;2023-05-07T03:13:47;6.57;;;4.28;;
49812;SDS011;35706;52.100;5.056;2023-05-07T03:14:49;9.30;;;4.93;;
49812;SDS011;35706;52.100;5.056;2023-05-07T03:15:49;7.20;;;5.43;;
49812;SDS011;35706;52.100;5.056;2023-05-07T03:16:50;7.07;;;5.28;;
49812;SDS011;35706;52.100;5.056;2023-05-07T03:17:50;6.15;;;5.50;;
49812;SDS011;35706;52.100;5.056;2023-05-07T03:18:50;5.85;;;5.35;;
49812;SDS011;35706;52.100;5.056;2023-05-07T03:19:51;5.78;;;4.82;;
49812;SDS011;35706;52.100;5.056;2023-05-07T03:20:51;5.70;;;5.20;;
49812;SDS011;35706;52.100;5.056;2023-05-07T03:21:51;5.97;;;5.07;;
49812;SDS011;35706;52.100;5.056;2023-05-07T03:22:52;4.80;;;4.40;;
49812;SDS011;35706;52.100;5.056;2023-05-07T03:23:52;5.53;;;4.72;;
49812;SDS011;35706;52.100;5.056;2023-05-07T03:24:53;5.35;;;4.85;;
49812;SDS011;35706;52.100;5.056;2023-05-07T03:25:53;5.50;;;5.03;;
49812;SDS011;35706;52.100;5.056;2023-05-07T03:26:53;5.32;;;4.90;;
49812;SDS011;35706;52.100;5.056;2023-05-07T03:27:54;5.05;;;4.57;;
49812;SDS011;35706;52.100;5.056;2023-05-07T03:28:54;6.55;;;4.47;;
49812;SDS011;35706;52.100;5.056;2023-05-07T03:29:55;6.80;;;4.65;;
49812;SDS011;35706;52.100;5.056;2023-05-07T03:30:55;6.43;;;4.43;;
49812;SDS011;35706;52.100;5.056;2023-05-07T03:31:56;7.38;;;4.85;;
49812;SDS011;35706;52.100;5.056;2023-05-07T03:32:56;5.38;;;4.60;;
49812;SDS011;35706;52.100;5.056;2023-05-07T03:33:57;4.60;;;4.13;;
49812;SDS011;35706;52.100;5.056;2023-05-07T03:34:57;4.22;;;3.60;;
49812;SDS011;35706;52.100;5.056;2023-05-07T03:35:57;7.60;;;3.92;;
49812;SDS011;35706;52.100;5.056;2023-05-07T03:36:58;5.68;;;4.00;;
49812;SDS011;35706;52.100;5.056;2023-05-07T03:37:58;5.65;;;3.95;;
49812;SDS011;35706;52.100;5.056;2023-05-07T03:38:58;7.07;;;4.25;;
49812;SDS011;35706;52.100;5.056;2023-05-07T03:39:59;6.97;;;4.15;;
49812;SDS011;35706;52.100;5.056;2023-05-07T03:40:59;8.20;;;4.07;;
49812;SDS011;35706;52.100;5.056;2023-05-07T03:41:59;6.10;;;4.90;;
49812;SDS011;35706;52.100;5.056;2023-05-07T03:43:00;5.13;;;3.80;;
49812;SDS011;35706;52.100;5.056;2023-05-07T03:44:01;6.40;;;4.10;;
49812;SDS011;35706;52.100;5.056;2023-05-07T03:45:01;4.57;;;4.05;;
49812;SDS011;35706;52.100;5.056;2023-05-07T03:46:02;5.88;;;4.40;;
49812;SDS011;35706;52.100;5.056;2023-05-07T03:47:02;4.85;;;4.45;;
49812;SDS011;35706;52.100;5.056;2023-05-07T03:48:03;5.13;;;4.00;;
49812;SDS011;35706;52.100;5.056;2023-05-07T03:49:03;8.23;;;4.65;;
49812;SDS011;35706;52.100;5.056;2023-05-07T03:50:04;4.78;;;4.25;;
49812;SDS011;35706;52.100;5.056;2023-05-07T03:51:05;6.40;;;4.18;;
49812;SDS011;35706;52.100;5.056;2023-05-07T03:52:05;4.93;;;4.53;;
49812;SDS011;35706;52.100;5.056;2023-05-07T03:53:06;5.22;;;4.53;;
49812;SDS011;35706;52.100;5.056;2023-05-07T03:54:06;5.65;;;4.70;;
49812;SDS011;35706;52.100;5.056;2023-05-07T03:55:07;4.80;;;4.40;;
49812;SDS011;35706;52.100;5.056;2023-05-07T03:56:08;5.25;;;4.95;;
49812;SDS011;35706;52.100;5.056;2023-05-07T03:57:08;6.57;;;5.82;;
49812;SDS011;35706;52.100;5.056;2023-05-07T03:58:08;6.03;;;5.53;;
49812;SDS011;35706;52.100;5.056;2023-05-07T03:59:09;6.28;;;5.68;;
49812;SDS011;35706;52.100;5.056;2023-05-07T04:00:09;6.18;;;5.57;;
49812;SDS011;35706;52.100;5.056;2023-05-07T04:01:10;6.50;;;5.82;;
49812;SDS011;35706;52.100;5.056;2023-05-07T04:02:11;7.95;;;6.95;;
49812;SDS011;35706;52.100;5.056;2023-05-07T04:03:11;6.65;;;5.93;;
49812;SDS011;35706;52.100;5.056;2023-05-07T04:04:12;7.25;;;6.55;;
49812;SDS011;35706;52.100;5.056;2023-05-07T04:05:12;9.05;;;7.32;;
49812;SDS011;35706;52.100;5.056;2023-05-07T04:06:17;7.30;;;6.57;;
49812;SDS011;35706;52.100;5.056;2023-05-07T04:07:18;7.38;;;6.60;;
49812;SDS011;35706;52.100;5.056;2023-05-07T04:08:18;9.07;;;7.40;;
49812;SDS011;35706;52.100;5.056;2023-05-07T04:09:18;6.93;;;6.25;;
49812;SDS011;35706;52.100;5.056;2023-05-07T04:10:19;7.30;;;6.78;;
49812;SDS011;35706;52.100;5.056;2023-05-07T04:11:19;7.72;;;6.57;;
49812;SDS011;35706;52.100;5.056;2023-05-07T04:12:20;10.85;;;7.35;;
49812;SDS011;35706;52.100;5.056;2023-05-07T04:13:23;10.93;;;7.57;;
49812;SDS011;35706;52.100;5.056;2023-05-07T04:14:24;8.63;;;7.18;;
49812;SDS011;35706;52.100;5.056;2023-05-07T04:15:25;7.80;;;7.20;;
49812;SDS011;35706;52.100;5.056;2023-05-07T04:16:25;8.95;;;7.13;;
49812;SDS011;35706;52.100;5.056;2023-05-07T04:17:25;8.63;;;7.78;;
49812;SDS011;35706;52.100;5.056;2023-05-07T04:18:26;8.95;;;7.70;;
49812;SDS011;35706;52.100;5.056;2023-05-07T04:19:26;10.13;;;7.60;;
49812;SDS011;35706;52.100;5.056;2023-05-07T04:20:26;8.63;;;7.82;;
49812;SDS011;35706;52.100;5.056;2023-05-07T04:21:29;9.30;;;8.38;;
49812;SDS011;35706;52.100;5.056;2023-05-07T04:22:30;9.13;;;8.23;;
49812;SDS011;35706;52.100;5.056;2023-05-07T04:23:31;9.02;;;8.18;;
49812;SDS011;35706;52.100;5.056;2023-05-07T04:24:32;9.90;;;8.60;;
49812;SDS011;35706;52.100;5.056;2023-05-07T04:25:33;10.85;;;8.75;;
49812;SDS011;35706;52.100;5.056;2023-05-07T04:26:33;10.80;;;9.75;;
49812;SDS011;35706;52.100;5.056;2023-05-07T04:27:34;15.05;;;9.55;;
49812;SDS011;35706;52.100;5.056;2023-05-07T04:28:35;11.63;;;9.23;;
49812;SDS011;35706;52.100;5.056;2023-05-07T04:29:36;12.20;;;9.75;;
49812;SDS011;35706;52.100;5.056;2023-05-07T04:30:36;10.63;;;9.63;;
49812;SDS011;35706;52.100;5.056;2023-05-07T04:31:37;10.98;;;8.65;;
49812;SDS011;35706;52.100;5.056;2023-05-07T04:32:37;12.57;;;10.07;;
49812;SDS011;35706;52.100;5.056;2023-05-07T04:33:38;11.23;;;9.63;;
49812;SDS011;35706;52.100;5.056;2023-05-07T04:34:39;11.40;;;10.30;;
49812;SDS011;35706;52.100;5.056;2023-05-07T04:35:39;11.65;;;9.75;;
49812;SDS011;35706;52.100;5.056;2023-05-07T04:36:40;15.82;;;10.95;;
49812;SDS011;35706;52.100;5.056;2023-05-07T04:37:40;12.35;;;11.00;;
49812;SDS011;35706;52.100;5.056;2023-05-07T04:38:40;15.65;;;11.15;;
49812;SDS011;35706;52.100;5.056;2023-05-07T04:39:41;14.13;;;12.20;;
49812;SDS011;35706;52.100;5.056;2023-05-07T04:40:42;17.00;;;12.18;;
49812;SDS011;35706;52.100;5.056;2023-05-07T04:41:42;15.10;;;11.30;;
49812;SDS011;35706;52.100;5.056;2023-05-07T04:42:42;15.90;;;12.63;;
49812;SDS011;35706;52.100;5.056;2023-05-07T04:43:43;13.75;;;11.73;;
49812;SDS011;35706;52.100;5.056;2023-05-07T04:44:43;13.82;;;11.82;;
49812;SDS011;35706;52.100;5.056;2023-05-07T04:45:45;14.90;;;11.65;;
49812;SDS011;35706;52.100;5.056;2023-05-07T04:46:45;17.48;;;12.15;;
49812;SDS011;35706;52.100;5.056;2023-05-07T04:47:45;14.65;;;12.52;;
49812;SDS011;35706;52.100;5.056;2023-05-07T04:48:46;15.93;;;11.75;;
49812;SDS011;35706;52.100;5.056;2023-05-07T04:49:46;15.05;;;11.68;;
49812;SDS011;35706;52.100;5.056;2023-05-07T04:50:47;12.02;;;10.45;;
49812;SDS011;35706;52.100;5.056;2023-05-07T04:51:48;13.52;;;11.57;;
49812;SDS011;35706;52.100;5.056;2023-05-07T04:52:48;13.48;;;11.82;;
49812;SDS011;35706;52.100;5.056;2023-05-07T04:53:48;17.40;;;12.18;;
49812;SDS011;35706;52.100;5.056;2023-05-07T04:54:49;12.70;;;11.35;;
49812;SDS011;35706;52.100;5.056;2023-05-07T04:55:54;13.70;;;12.05;;
49812;SDS011;35706;52.100;5.056;2023-05-07T04:56:55;14.30;;;11.90;;
49812;SDS011;35706;52.100;5.056;2023-05-07T04:57:56;12.75;;;11.43;;
49812;SDS011;35706;52.100;5.056;2023-05-07T04:58:56;14.82;;;11.35;;
49812;SDS011;35706;52.100;5.056;2023-05-07T04:59:57;14.27;;;12.25;;
49812;SDS011;35706;52.100;5.056;2023-05-07T05:00:58;14.27;;;11.93;;
49812;SDS011;35706;52.100;5.056;2023-05-07T05:01:58;16.65;;;11.50;;
49812;SDS011;35706;52.100;5.056;2023-05-07T05:02:59;14.35;;;12.00;;
49812;SDS011;35706;52.100;5.056;2023-05-07T05:03:59;13.27;;;11.85;;
49812;SDS011;35706;52.100;5.056;2023-05-07T05:05:00;19.15;;;12.13;;
49812;SDS011;35706;52.100;5.056;2023-05-07T05:06:04;13.25;;;11.07;;
49812;SDS011;35706;52.100;5.056;2023-05-07T05:07:04;15.40;;;12.63;;
49812;SDS011;35706;52.100;5.056;2023-05-07T05:08:05;14.00;;;10.98;;
49812;SDS011;35706;52.100;5.056;2023-05-07T05:09:06;16.08;;;11.10;;
49812;SDS011;35706;52.100;5.056;2023-05-07T05:10:07;13.85;;;11.30;;
49812;SDS011;35706;52.100;5.056;2023-05-07T05:11:07;14.38;;;11.05;;
49812;SDS011;35706;52.100;5.056;2023-05-07T05:12:07;14.52;;;11.18;;
49812;SDS011;35706;52.100;5.056;2023-05-07T05:13:08;12.57;;;11.38;;
49812;SDS011;35706;52.100;5.056;2023-05-07T05:14:09;12.13;;;10.95;;
49812;SDS011;35706;52.100;5.056;2023-05-07T05:15:10;12.10;;;10.93;;
49812;SDS011;35706;52.100;5.056;2023-05-07T05:16:11;12.55;;;10.43;;
49812;SDS011;35706;52.100;5.056;2023-05-07T05:17:11;12.88;;;11.07;;
49812;SDS011;35706;52.100;5.056;2023-05-07T05:18:14;10.68;;;9.52;;
49812;SDS011;35706;52.100;5.056;2023-05-07T05:19:15;11.27;;;10.15;;
49812;SDS011;35706;52.100;5.056;2023-05-07T05:20:15;13.07;;;10.35;;
49812;SDS011;35706;52.100;5.056;2023-05-07T05:21:15;12.10;;;10.13;;
49812;SDS011;35706;52.100;5.056;2023-05-07T05:22:16;12.48;;;11.05;;
49812;SDS011;35706;52.100;5.056;2023-05-07T05:23:16;13.55;;;8.90;;
49812;SDS011;35706;52.100;5.056;2023-05-07T05:24:16;10.90;;;9.82;;
49812;SDS011;35706;52.100;5.056;2023-05-07T05:25:17;10.98;;;9.57;;
49812;SDS011;35706;52.100;5.056;2023-05-07T05:26:18;10.90;;;9.77;;
49812;SDS011;35706;52.100;5.056;2023-05-07T05:27:18;12.20;;;10.50;;
49812;SDS011;35706;52.100;5.056;2023-05-07T05:28:19;10.32;;;9.20;;
49812;SDS011;35706;52.100;5.056;2023-05-07T05:29:19;10.57;;;9.60;;
49812;SDS011;35706;52.100;5.056;2023-05-07T05:30:19;10.88;;;9.75;;
49812;SDS011;35706;52.100;5.056;2023-05-07T05:31:19;9.73;;;8.75;;
49812;SDS011;35706;52.100;5.056;2023-05-07T05:32:21;11.05;;;9.60;;
49812;SDS011;35706;52.100;5.056;2023-05-07T05:33:24;10.95;;;9.82;;
49812;SDS011;35706;52.100;5.056;2023-05-07T05:34:24;11.13;;;9.75;;
49812;SDS011;35706;52.100;5.056;2023-05-07T05:35:24;11.20;;;9.95;;
49812;SDS011;35706;52.100;5.056;2023-05-07T05:36:25;10.75;;;9.80;;
49812;SDS011;35706;52.100;5.056;2023-05-07T05:37:25;13.52;;;10.43;;
49812;SDS011;35706;52.100;5.056;2023-05-07T05:38:26;10.88;;;9.25;;
49812;SDS011;35706;52.100;5.056;2023-05-07T05:39:27;10.23;;;9.23;;
49812;SDS011;35706;52.100;5.056;2023-05-07T05:40:27;12.93;;;9.52;;
49812;SDS011;35706;52.100;5.056;2023-05-07T05:41:27;11.95;;;9.38;;
49812;SDS011;35706;52.100;5.056;2023-05-07T05:42:28;13.25;;;10.15;;
49812;SDS011;35706;52.100;5.056;2023-05-07T05:43:28;11.18;;;9.75;;
49812;SDS011;35706;52.100;5.056;2023-05-07T05:44:28;9.20;;;8.40;;
49812;SDS011;35706;52.100;5.056;2023-05-07T05:45:29;15.05;;;9.68;;
49812;SDS011;35706;52.100;5.056;2023-05-07T05:46:29;11.50;;;10.30;;
49812;SDS011;35706;52.100;5.056;2023-05-07T05:47:29;11.73;;;10.52;;
49812;SDS011;35706;52.100;5.056;2023-05-07T05:48:30;17.23;;;11.10;;
49812;SDS011;35706;52.100;5.056;2023-05-07T05:49:30;15.27;;;11.20;;
49812;SDS011;35706;52.100;5.056;2023-05-07T05:50:31;11.77;;;10.10;;
49812;SDS011;35706;52.100;5.056;2023-05-07T05:51:31;15.82;;;10.23;;
49812;SDS011;35706;52.100;5.056;2023-05-07T05:52:31;13.52;;;10.48;;
49812;SDS011;35706;52.100;5.056;2023-05-07T05:53:32;9.90;;;8.82;;
49812;SDS011;35706;52.100;5.056;2023-05-07T05:54:32;10.85;;;9.77;;
49812;SDS011;35706;52.100;5.056;2023-05-07T05:55:32;10.40;;;9.15;;
49812;SDS011;35706;52.100;5.056;2023-05-07T05:56:33;12.55;;;10.90;;
49812;SDS011;35706;52.100;5.056;2023-05-07T05:57:33;10.18;;;9.25;;
49812;SDS011;35706;52.100;5.056;2023-05-07T05:58:34;11.05;;;9.98;;
49812;SDS011;35706;52.100;5.056;2023-05-07T05:59:34;11.48;;;10.48;;
49812;SDS011;35706;52.100;5.056;2023-05-07T06:00:34;15.27;;;9.93;;
49812;SDS011;35706;52.100;5.056;2023-05-07T06:01:35;25.08;;;10.32;;
49812;SDS011;35706;52.100;5.056;2023-05-07T06:02:35;12.60;;;10.13;;
49812;SDS011;35706;52.100;5.056;2023-05-07T06:03:36;12.85;;;9.93;;